Time;durP1;ratioP1;P1;durP2;ratioP2;P2;SDS_P1;SDS_P2;PMS_P1;PMS_P2;Temp;Humidity;BMP_temperature;BMP_pressure;BME280_temperature;BME280_humidity;BME280_pressure;Samples;Min_cycle;Max_cycle;Signal;HPM_P1;HPM_P2
2023/04/06 00:02:15;;;;;;;6.07;3.00;;;;;;;6.09;50.75;100647.34;5026062;28;20397;-75
2023/04/06 00:04:40;;;;;;;3.20;2.90;;;;;;;6.07;51.24;100644.06;5021843;28;20380;-75
2023/04/06 00:07:06;;;;;;;5.83;3.20;;;;;;;6.08;50.89;100639.50;5018488;28;20396;-75
2023/04/06 00:09:31;;;;;;;3.57;2.73;;;;;;;6.08;51.19;100640.34;5026994;28;20403;-75
2023/04/06 00:11:57;;;;;;;7.60;3.00;;;;;;;6.07;51.46;100651.28;5017594;28;20520;-74
2023/04/06 00:14:23;;;;;;;6.05;3.00;;;;;;;6.06;51.39;100644.28;5029876;28;20886;-75
2023/04/06 00:16:48;;;;;;;6.23;3.53;;;;;;;6.07;51.80;100641.38;5019426;28;20459;-74
2023/04/06 00:19:13;;;;;;;4.03;3.20;;;;;;;6.06;51.85;100639.69;5026926;28;20426;-75
2023/04/06 00:21:39;;;;;;;5.80;3.73;;;;;;;6.09;51.65;100636.59;5016383;28;20399;-75
2023/04/06 00:24:04;;;;;;;4.13;3.63;;;;;;;6.13;51.52;100634.28;5023945;28;20435;-74
2023/04/06 00:26:29;;;;;;;5.63;3.40;;;;;;;6.11;51.85;100636.38;5027335;28;20479;-75
2023/04/06 00:28:55;;;;;;;5.63;3.10;;;;;;;6.09;51.93;100639.28;5026356;28;20461;-74
2023/04/06 00:31:20;;;;;;;4.45;3.10;;;;;;;6.07;52.18;100635.97;5030739;28;20913;-75
2023/04/06 00:33:45;;;;;;;6.27;3.40;;;;;;;6.05;51.74;100632.69;5030220;28;20410;-75
2023/04/06 00:36:10;;;;;;;5.40;3.35;;;;;;;6.02;51.90;100632.28;5031728;28;20431;-75
2023/04/06 00:38:36;;;;;;;5.43;3.30;;;;;;;5.95;51.96;100639.53;5018035;28;20799;-75
2023/04/06 00:41:03;;;;;;;4.57;3.60;;;;;;;5.89;51.90;100641.22;5026539;28;20414;-75
2023/04/06 00:43:28;;;;;;;3.33;2.97;;;;;;;5.84;51.50;100630.22;5031351;28;20949;-75
2023/04/06 00:45:54;;;;;;;5.33;2.90;;;;;;;5.79;51.99;100634.56;5030366;28;20430;-75
2023/04/06 00:48:19;;;;;;;3.47;3.00;;;;;;;5.72;51.94;100629.19;5027080;28;20488;-75
2023/04/06 00:50:44;;;;;;;2.80;2.60;;;;;;;5.69;52.30;100632.31;5028535;28;20878;-75
2023/04/06 00:53:10;;;;;;;4.40;2.72;;;;;;;5.63;52.22;100628.56;5027201;28;20467;-75
2023/04/06 00:55:35;;;;;;;2.70;2.53;;;;;;;5.60;52.37;100630.84;5024478;28;20401;-75
2023/04/06 00:58:01;;;;;;;2.77;2.57;;;;;;;5.56;52.18;100622.41;5039012;28;20901;-75
2023/04/06 01:00:26;;;;;;;3.27;2.50;;;;;;;5.52;52.05;100631.09;5015812;28;20404;-75
2023/04/06 01:02:52;;;;;;;3.72;2.75;;;;;;;5.45;52.16;100622.19;5027881;28;20799;-75
2023/04/06 01:05:17;;;;;;;4.38;3.03;;;;;;;5.36;52.04;100624.28;5012806;28;20476;-75
2023/04/06 01:07:43;;;;;;;7.72;2.97;;;;;;;5.29;52.02;100622.59;5024224;28;20493;-75
2023/04/06 01:10:09;;;;;;;2.80;2.60;;;;;;;5.23;52.30;100624.28;5031224;28;20397;-75
2023/04/06 01:12:34;;;;;;;3.73;2.50;;;;;;;5.21;51.84;100631.69;5029094;28;20418;-75
2023/04/06 01:15:00;;;;;;;2.87;2.37;;;;;;;5.19;51.90;100628.38;5022567;28;20478;-75
2023/04/06 01:17:25;;;;;;;3.20;2.90;;;;;;;5.18;51.73;100632.09;5024708;28;20443;-75
2023/04/06 01:19:53;;;;;;;3.75;2.60;;;;;;;5.18;51.92;100618.66;5042513;28;20408;-75
2023/04/06 01:22:19;;;;;;;3.22;2.92;;;;;;;5.17;51.67;100625.91;5028776;28;20862;-75
2023/04/06 01:24:45;;;;;;;2.92;2.63;;;;;;;5.17;51.76;100617.84;5015303;28;20588;-75
2023/04/06 01:27:10;;;;;;;4.72;2.60;;;;;;;5.14;51.80;100617.41;5039978;28;20906;-75
2023/04/06 01:29:36;;;;;;;2.87;2.60;;;;;;;5.15;51.94;100606.47;5022124;28;20397;-75
2023/04/06 01:32:01;;;;;;;3.17;2.53;;;;;;;5.12;51.80;100606.91;5030210;28;20399;-74
2023/04/06 01:34:26;;;;;;;2.90;2.70;;;;;;;5.11;52.08;100604.41;5018044;28;20400;-75
2023/04/06 01:36:52;;;;;;;3.27;2.97;;;;;;;5.12;51.86;100598.84;5035042;28;20399;-75
2023/04/06 01:39:17;;;;;;;3.50;2.42;;;;;;;5.10;51.82;100602.78;5022359;28;20768;-75
2023/04/06 01:41:42;;;;;;;4.97;2.93;;;;;;;5.10;52.19;100598.19;5015186;28;20416;-75
2023/04/06 01:44:08;;;;;;;3.13;2.73;;;;;;;5.09;52.07;100601.09;5031042;28;20475;-75
2023/04/06 01:46:33;;;;;;;5.00;3.25;;;;;;;5.06;51.88;100602.34;5020847;28;20397;-74
2023/04/06 01:48:58;;;;;;;3.37;3.07;;;;;;;5.02;52.05;100602.97;5033913;28;20899;-74
2023/04/06 01:51:25;;;;;;;3.30;2.97;;;;;;;4.98;52.25;100599.84;5034468;28;20409;-74
2023/04/06 01:53:51;;;;;;;3.53;3.22;;;;;;;4.96;51.96;100593.88;5030335;28;20397;-75
2023/04/06 01:56:16;;;;;;;4.38;3.97;;;;;;;4.93;52.49;100588.91;5015400;28;20738;-74
2023/04/06 01:58:41;;;;;;;5.93;5.40;;;;;;;4.91;52.92;100582.06;5024414;28;20411;-74
2023/04/06 02:01:07;;;;;;;12.27;11.47;;;;;;;4.88;53.00;100596.75;5021139;28;20791;-74
2023/04/06 02:03:32;;;;;;;13.80;12.87;;;;;;;4.86;53.09;100596.13;5029233;28;20406;-74
2023/04/06 02:05:57;;;;;;;23.30;15.70;;;;;;;4.86;52.96;100590.75;5014830;28;20432;-75
2023/04/06 02:08:23;;;;;;;21.30;16.80;;;;;;;4.87;52.92;100596.97;5038404;28;20398;-74
2023/04/06 02:10:48;;;;;;;21.95;19.60;;;;;;;4.84;52.53;100595.47;5020978;28;20484;-74
2023/04/06 02:13:13;;;;;;;28.57;25.87;;;;;;;4.83;53.03;100598.38;5029384;28;20445;-74
2023/04/06 02:15:38;;;;;;;23.03;20.73;;;;;;;4.83;53.03;100593.03;5014446;28;20823;-74
2023/04/06 02:18:04;;;;;;;33.20;30.63;;;;;;;4.82;52.79;100594.88;5017127;28;20622;-74
2023/04/06 02:20:29;;;;;;;242.60;230.10;;;;;;;4.81;53.09;100589.72;5023185;28;20455;-74
2023/04/06 02:22:56;;;;;;;708.90;663.38;;;;;;;4.82;53.46;100586.00;5029362;28;20419;-74
2023/04/06 02:25:21;;;;;;;1180.90;999.90;;;;;;;4.83;54.10;100585.81;5029863;28;20415;-74
2023/04/06 02:27:47;;;;;;;1346.57;999.90;;;;;;;4.85;54.18;100577.53;5018218;28;20387;-74
2023/04/06 02:30:12;;;;;;;1734.57;999.90;;;;;;;4.86;54.15;100580.03;5021870;28;20401;-74
2023/04/06 02:32:37;;;;;;;1789.50;999.90;;;;;;;4.84;54.28;100574.00;5020116;28;20449;-74
2023/04/06 02:35:03;;;;;;;1999.90;999.90;;;;;;;4.73;54.89;100577.31;5032412;28;20456;-74
2023/04/06 02:37:28;;;;;;;1999.90;999.90;;;;;;;4.71;55.13;100582.88;5027269;28;20420;-75
2023/04/06 02:39:53;;;;;;;1999.90;999.90;;;;;;;4.72;55.53;100581.00;5022669;28;20406;-74
2023/04/06 02:42:19;;;;;;;1999.90;999.90;;;;;;;4.74;55.45;100578.16;5019892;28;20792;-74
2023/04/06 02:44:44;;;;;;;1999.90;999.90;;;;;;;4.72;55.37;100579.16;5045213;28;20406;-74
2023/04/06 02:47:10;;;;;;;1999.90;999.90;;;;;;;4.74;55.48;100583.50;5038023;28;20420;-74
2023/04/06 02:49:36;;;;;;;1999.90;999.90;;;;;;;4.75;55.44;100583.28;5048764;28;20403;-74
2023/04/06 02:52:02;;;;;;;1999.90;999.90;;;;;;;4.79;55.71;100589.09;5020834;28;20769;-74
2023/04/06 02:54:27;;;;;;;1999.90;999.90;;;;;;;4.79;55.51;100581.84;5027694;28;20392;-74
2023/04/06 02:56:52;;;;;;;1999.90;999.90;;;;;;;4.79;55.76;100578.34;5025293;28;20406;-74
2023/04/06 02:59:17;;;;;;;1999.90;999.90;;;;;;;4.73;55.97;100580.00;5025512;28;20474;-74
2023/04/06 03:01:43;;;;;;;1999.90;999.90;;;;;;;4.68;55.78;100575.22;5020494;28;20411;-74
2023/04/06 03:04:08;;;;;;;1999.90;999.90;;;;;;;4.67;56.04;100573.59;5032528;28;20387;-74
2023/04/06 03:06:33;;;;;;;1999.90;999.90;;;;;;;4.70;56.15;100575.03;5015407;28;20428;-74
2023/04/06 03:08:59;;;;;;;1999.90;999.90;;;;;;;4.68;55.87;100574.41;5018765;28;20402;-74
2023/04/06 03:11:26;;;;;;;1999.90;999.90;;;;;;;4.65;55.57;100570.28;5022311;28;20445;-74
2023/04/06 03:13:51;;;;;;;1999.90;999.90;;;;;;;4.67;55.92;100576.28;5013332;28;20397;-74
2023/04/06 03:16:16;;;;;;;1999.90;999.90;;;;;;;4.67;55.72;100576.28;5029077;28;20430;-74
2023/04/06 03:18:42;;;;;;;1999.90;999.90;;;;;;;4.66;55.80;100568.41;5028550;28;20419;-74
2023/04/06 03:21:07;;;;;;;1999.90;999.90;;;;;;;4.64;56.03;100573.97;5013733;28;20393;-74
2023/04/06 03:23:32;;;;;;;1999.90;999.90;;;;;;;4.66;55.99;100576.47;5024598;28;20414;-74
2023/04/06 03:25:57;;;;;;;1999.90;999.90;;;;;;;4.65;56.39;100575.63;5031413;28;20441;-74
2023/04/06 03:28:23;;;;;;;1999.90;999.90;;;;;;;4.66;56.31;100571.94;5015331;28;20445;-74
2023/04/06 03:30:49;;;;;;;1999.90;999.90;;;;;;;4.65;56.42;100574.81;5031640;28;20423;-74
2023/04/06 03:33:14;;;;;;;1999.90;999.90;;;;;;;4.65;56.48;100572.94;5020588;28;20408;-74
2023/04/06 03:35:39;;;;;;;1999.90;999.90;;;;;;;4.63;56.13;100575.03;5027559;28;20844;-74
2023/04/06 03:38:05;;;;;;;1999.90;999.90;;;;;;;4.58;56.34;100572.09;5020696;28;20481;-74
2023/04/06 03:40:31;;;;;;;1999.90;999.90;;;;;;;4.52;56.70;100575.59;5025226;28;20407;-74
2023/04/06 03:42:56;;;;;;;1999.90;999.90;;;;;;;4.50;56.90;100579.53;5021376;28;20397;-74
2023/04/06 03:45:22;;;;;;;1999.90;999.90;;;;;;;4.43;56.85;100581.38;5025290;28;20775;-74
2023/04/06 03:47:47;;;;;;;1999.90;999.90;;;;;;;4.39;56.46;100574.75;5031227;28;20395;-74
2023/04/06 03:50:12;;;;;;;1999.90;999.90;;;;;;;4.37;56.40;100580.31;5017653;28;20402;-74
2023/04/06 03:52:37;;;;;;;1999.90;999.90;;;;;;;4.36;56.53;100583.19;5030733;28;20789;-74
2023/04/06 03:55:03;;;;;;;1999.90;999.90;;;;;;;4.36;56.81;100580.50;5027639;28;20397;-74
2023/04/06 03:57:28;;;;;;;1999.90;999.90;;;;;;;4.37;56.70;100583.00;5028466;28;20410;-74
2023/04/06 03:59:54;;;;;;;1999.90;999.90;;;;;;;4.40;56.62;100587.13;5037094;28;20911;-74
2023/04/06 04:02:19;;;;;;;1999.90;999.90;;;;;;;4.40;56.97;100593.34;5012492;28;20400;-74
2023/04/06 04:04:45;;;;;;;1999.90;999.90;;;;;;;4.41;56.90;100594.16;5011179;28;20488;-74
2023/04/06 04:07:10;;;;;;;1999.90;999.90;;;;;;;4.39;56.86;100586.31;5019829;28;20402;-74
2023/04/06 04:09:36;;;;;;;1999.90;999.90;;;;;;;4.38;56.91;100598.06;5029933;28;20397;-74
2023/04/06 04:12:02;;;;;;;1999.90;999.90;;;;;;;4.37;56.72;100599.09;5024587;28;20413;-74
2023/04/06 04:14:27;;;;;;;1999.90;999.90;;;;;;;4.36;57.12;100596.59;5023487;28;20902;-74
2023/04/06 04:16:52;;;;;;;1999.90;999.90;;;;;;;4.35;56.77;100603.81;5032009;28;20754;-74
2023/04/06 04:19:18;;;;;;;1999.90;999.90;;;;;;;4.32;56.69;100606.91;5014353;28;20413;-74
2023/04/06 04:21:45;;;;;;;1999.90;999.90;;;;;;;4.31;56.85;100607.97;5029346;28;20436;-74
2023/04/06 04:24:10;;;;;;;1999.90;999.90;;;;;;;4.31;56.70;100607.13;5022528;28;20392;-74
2023/04/06 04:26:35;;;;;;;1999.90;999.90;;;;;;;4.30;56.91;100611.66;5020832;28;20517;-74
2023/04/06 04:29:01;;;;;;;1999.90;999.90;;;;;;;4.33;57.22;100616.63;5040534;28;20402;-73
2023/04/06 04:31:26;;;;;;;1999.90;999.90;;;;;;;4.33;56.88;100608.56;5022339;28;20430;-74
2023/04/06 04:33:51;;;;;;;1999.90;999.90;;;;;;;4.31;57.38;100613.31;5023812;28;20409;-74
2023/04/06 04:36:16;;;;;;;1999.90;999.90;;;;;;;4.28;57.14;100615.56;5023546;28;20762;-74
2023/04/06 04:38:42;;;;;;;1999.90;999.90;;;;;;;4.25;57.08;100619.47;5011540;28;20420;-73
2023/04/06 04:41:07;;;;;;;1999.90;999.90;;;;;;;4.26;57.31;100617.63;5013811;28;20391;-74
2023/04/06 04:43:32;;;;;;;1999.90;999.90;;;;;;;4.26;57.30;100618.44;5031468;28;20952;-74
2023/04/06 04:45:58;;;;;;;1999.90;999.90;;;;;;;4.24;56.98;100620.50;5024001;28;20487;-74
2023/04/06 04:48:24;;;;;;;1999.90;999.90;;;;;;;4.24;56.71;100623.19;5021137;28;20404;-74
2023/04/06 04:50:49;;;;;;;1999.90;999.90;;;;;;;4.28;56.38;100615.56;5027271;28;20395;-74
2023/04/06 04:53:14;;;;;;;1999.90;999.90;;;;;;;4.29;56.95;100617.22;5016632;28;20399;-74
2023/04/06 04:55:40;;;;;;;1999.90;999.90;;;;;;;4.29;56.42;100618.03;5029974;28;20402;-74
2023/04/06 04:58:05;;;;;;;1999.90;999.90;;;;;;;4.28;57.00;100618.25;5020305;28;20473;-74
2023/04/06 05:00:31;;;;;;;1999.90;999.90;;;;;;;4.29;56.90;100619.91;5043937;28;20397;-73
2023/04/06 05:02:56;;;;;;;1999.90;999.90;;;;;;;4.29;56.87;100628.78;5032139;28;20459;-73
2023/04/06 05:05:21;;;;;;;1999.90;999.90;;;;;;;4.30;56.71;100629.59;5025201;28;20405;-74
2023/04/06 05:07:47;;;;;;;1999.90;999.90;;;;;;;4.28;56.60;100634.34;5034655;28;20411;-74
2023/04/06 05:10:12;;;;;;;1999.90;999.90;;;;;;;4.22;56.69;100641.31;5027173;28;20404;-73
2023/04/06 05:12:37;;;;;;;1999.90;999.90;;;;;;;4.15;56.76;100641.28;5014835;28;20387;-73
2023/04/06 05:15:03;;;;;;;1999.90;999.90;;;;;;;4.11;56.90;100640.06;5039488;28;20479;-73
2023/04/06 05:17:28;;;;;;;1999.90;999.90;;;;;;;4.09;57.02;100642.09;5021583;28;20485;-73
2023/04/06 05:19:54;;;;;;;1999.90;999.90;;;;;;;4.08;56.90;100639.63;5025153;28;21115;-73
2023/04/06 05:22:19;;;;;;;1999.90;999.90;;;;;;;4.05;56.56;100651.56;5016067;28;20420;-73
2023/04/06 05:24:45;;;;;;;1999.90;999.90;;;;;;;4.02;56.73;100651.13;5026149;28;20427;-73
2023/04/06 05:27:10;;;;;;;1999.90;999.90;;;;;;;4.01;56.56;100654.84;5023795;28;20421;-74
2023/04/06 05:29:35;;;;;;;1999.90;999.90;;;;;;;4.03;56.94;100652.78;5037916;28;20770;-74
2023/04/06 05:32:01;;;;;;;1999.90;999.90;;;;;;;4.05;56.71;100656.91;5030777;28;20478;-73
2023/04/06 05:34:26;;;;;;;1999.90;999.90;;;;;;;4.07;56.93;100656.72;5016262;28;20422;-73
2023/04/06 05:36:51;;;;;;;1999.90;999.90;;;;;;;4.11;56.78;100663.38;5026546;28;20914;-73
2023/04/06 05:39:17;;;;;;;1999.90;999.90;;;;;;;4.13;57.09;100656.78;5032224;28;20914;-73
2023/04/06 05:41:42;;;;;;;1999.90;999.90;;;;;;;4.18;57.23;100665.03;5030349;28;20446;-73
2023/04/06 05:44:07;;;;;;;1999.90;999.90;;;;;;;4.22;56.69;100660.09;5023871;28;20394;-74
2023/04/06 05:46:33;;;;;;;1999.90;999.90;;;;;;;4.29;56.75;100666.34;5028318;28;20473;-73
2023/04/06 05:48:58;;;;;;;1999.90;999.90;;;;;;;4.33;56.66;100659.56;5031025;28;20474;-75
2023/04/06 05:51:23;;;;;;;1999.90;999.90;;;;;;;4.37;57.05;100654.63;5030683;28;20399;-73
2023/04/06 05:53:48;;;;;;;1999.90;999.90;;;;;;;4.40;56.92;100662.25;5027602;28;20391;-73
2023/04/06 05:56:14;;;;;;;1999.90;999.90;;;;;;;4.41;56.98;100659.38;5011066;28;20767;-72
2023/04/06 05:58:39;;;;;;;1836.07;999.90;;;;;;;4.43;57.05;100659.19;5018685;28;20411;-73
2023/04/06 06:01:05;;;;;;;1246.87;999.90;;;;;;;4.50;57.30;100658.19;5030570;28;20411;-73
2023/04/06 06:03:30;;;;;;;998.70;920.63;;;;;;;4.55;56.92;100657.56;5031923;28;20391;-74
2023/04/06 06:06:03;;;;;;;141.10;134.27;;;;;;;4.65;56.90;100658.00;5034948;28;20957;-73
2023/04/06 06:08:28;;;;;;;13.45;12.45;;;;;;;4.71;56.87;100658.03;5026222;28;20416;-74
2023/04/06 06:10:54;;;;;;;9.40;4.73;;;;;;;4.77;56.88;100658.28;5022736;28;20413;-73
2023/04/06 06:13:19;;;;;;;4.87;4.17;;;;;;;4.86;57.02;100660.56;5037098;28;20410;-72
2023/04/06 06:15:44;;;;;;;7.37;3.97;;;;;;;4.93;56.86;100661.41;5027716;28;20496;-73
2023/04/06 06:18:10;;;;;;;8.77;3.77;;;;;;;4.88;57.24;100663.88;5027871;28;20526;-72
2023/04/06 06:20:35;;;;;;;5.32;4.32;;;;;;;4.93;57.42;100665.97;5033024;28;20549;-74
2023/04/06 06:23:00;;;;;;;4.90;4.13;;;;;;;5.03;57.31;100652.97;5031730;28;20454;-73
2023/04/06 06:25:26;;;;;;;4.87;4.47;;;;;;;5.17;57.10;100657.34;5031360;28;20427;-73
2023/04/06 06:27:51;;;;;;;8.33;5.73;;;;;;;5.27;57.16;100654.25;5017397;28;20789;-74
2023/04/06 06:30:16;;;;;;;35.70;28.97;;;;;;;5.35;56.84;100664.78;5013561;28;20404;-73
2023/04/06 06:32:41;;;;;;;14.25;9.38;;;;;;;5.40;57.19;100663.13;5037364;28;20399;-73
2023/04/06 06:35:07;;;;;;;7.50;5.00;;;;;;;5.54;57.35;100655.88;5031139;28;20395;-74
2023/04/06 06:37:32;;;;;;;6.20;4.83;;;;;;;5.67;56.49;100651.31;5032751;28;20456;-74
2023/04/06 06:39:58;;;;;;;8.20;6.13;;;;;;;5.77;56.71;100650.91;5036270;28;20878;-73
2023/04/06 06:42:23;;;;;;;10.07;6.37;;;;;;;5.82;56.66;100645.75;5057987;28;20413;-73
2023/04/06 06:44:48;;;;;;;8.13;5.27;;;;;;;5.91;56.48;100657.97;5024335;28;20932;-74
2023/04/06 06:47:13;;;;;;;5.90;4.80;;;;;;;5.91;56.48;100659.81;5038910;28;20421;-73
2023/04/06 06:49:39;;;;;;;7.43;5.47;;;;;;;5.91;56.35;100654.44;5018065;28;20491;-73
2023/04/06 06:52:04;;;;;;;7.32;5.50;;;;;;;5.93;56.45;100647.81;5013886;28;20511;-73
2023/04/06 06:54:29;;;;;;;10.43;6.63;;;;;;;6.00;56.19;100650.47;5017648;28;20768;-72
2023/04/06 06:56:55;;;;;;;9.97;6.40;;;;;;;6.00;55.97;100651.31;5024082;28;20773;-73
2023/04/06 06:59:20;;;;;;;10.63;6.77;;;;;;;5.95;55.97;100651.13;5030280;28;20458;-72
2023/04/06 07:01:45;;;;;;;11.43;6.57;;;;;;;6.07;56.21;100662.06;5031866;28;20704;-73
2023/04/06 07:04:11;;;;;;;6.40;5.63;;;;;;;6.14;55.86;100658.31;5034867;28;20411;-73
2023/04/06 07:06:36;;;;;;;9.20;5.67;;;;;;;6.12;56.03;100657.72;5028907;28;20419;-73
2023/04/06 07:09:03;;;;;;;7.70;5.70;;;;;;;6.20;55.58;100652.09;5023221;28;20413;-73
2023/04/06 07:11:28;;;;;;;7.82;6.15;;;;;;;6.34;55.26;100650.19;5033861;28;21754;-73
2023/04/06 07:13:54;;;;;;;9.02;6.00;;;;;;;6.42;54.91;100643.75;5025706;28;20774;-73
2023/04/06 07:16:19;;;;;;;8.75;5.85;;;;;;;6.51;54.97;100647.84;5016705;28;20403;-73
2023/04/06 07:18:45;;;;;;;12.73;6.60;;;;;;;6.58;54.96;100645.94;5032476;28;20520;-73
2023/04/06 07:21:10;;;;;;;6.57;5.87;;;;;;;6.77;54.42;100650.41;5024724;28;20436;-73
2023/04/06 07:23:35;;;;;;;10.33;7.30;;;;;;;7.02;53.15;100647.75;5028245;28;20451;-73
2023/04/06 07:26:00;;;;;;;197.23;187.20;;;;;;;7.16;52.78;100652.03;5033405;28;20456;-73
2023/04/06 07:28:26;;;;;;;695.10;651.67;;;;;;;7.12;52.54;100651.63;5027358;28;20473;-73
2023/04/06 07:30:51;;;;;;;587.53;553.60;;;;;;;7.04;52.96;100643.81;5018501;28;20412;-74
2023/04/06 07:33:16;;;;;;;863.43;805.17;;;;;;;6.98;53.25;100641.97;5015541;28;20482;-72
2023/04/06 07:35:42;;;;;;;1057.30;972.88;;;;;;;7.00;53.66;100645.31;5027424;28;20405;-72
2023/04/06 07:38:07;;;;;;;1913.97;999.90;;;;;;;7.00;53.20;100648.00;5031409;28;20411;-73
2023/04/06 07:40:32;;;;;;;1999.90;999.90;;;;;;;6.99;53.64;100645.50;5029056;28;20902;-73
2023/04/06 07:42:58;;;;;;;1999.90;999.90;;;;;;;7.04;53.74;100648.38;5023142;28;20411;-73
2023/04/06 07:45:23;;;;;;;1999.90;999.90;;;;;;;7.11;53.52;100646.47;5021973;28;20463;-73
2023/04/06 07:47:49;;;;;;;1999.90;999.90;;;;;;;7.21;53.11;100652.22;5040585;28;20420;-73
2023/04/06 07:50:15;;;;;;;1999.90;999.90;;;;;;;7.26;53.22;100655.91;5025916;28;20406;-72
2023/04/06 07:52:40;;;;;;;1999.90;999.90;;;;;;;7.39;52.93;100660.38;5026701;28;21022;-72
2023/04/06 07:55:06;;;;;;;1999.90;999.90;;;;;;;7.44;52.72;100657.84;5028990;28;20395;-72
2023/04/06 07:57:31;;;;;;;1999.90;999.90;;;;;;;7.49;52.86;100657.16;5029784;28;20396;-72
2023/04/06 07:59:56;;;;;;;1999.90;999.90;;;;;;;7.58;52.57;100653.16;5026957;28;20401;-72
2023/04/06 08:02:21;;;;;;;1999.90;999.90;;;;;;;7.64;52.50;100652.28;5020614;28;20411;-72
2023/04/06 08:04:47;;;;;;;1999.90;999.90;;;;;;;7.70;52.13;100659.50;5024104;28;20410;-72
2023/04/06 08:07:12;;;;;;;1999.90;999.90;;;;;;;7.82;51.73;100661.25;5020311;28;20415;-71
2023/04/06 08:09:38;;;;;;;1999.90;999.90;;;;;;;7.97;51.78;100654.69;5023194;28;20918;-72
2023/04/06 08:12:03;;;;;;;1999.90;999.90;;;;;;;8.11;51.64;100658.88;5029818;28;20475;-72
2023/04/06 08:14:28;;;;;;;1999.90;999.90;;;;;;;8.25;51.27;100660.38;5042507;28;20417;-72
2023/04/06 08:16:54;;;;;;;1999.90;999.90;;;;;;;8.33;51.46;100652.03;5030086;28;20414;-72
2023/04/06 08:19:19;;;;;;;1999.90;999.90;;;;;;;8.44;51.26;100653.13;5035572;28;20431;-72
2023/04/06 08:21:46;;;;;;;1999.90;999.90;;;;;;;8.76;50.46;100647.31;5038644;28;20417;-72
2023/04/06 08:24:11;;;;;;;1999.90;999.90;;;;;;;9.12;49.20;100651.78;5034025;28;20409;-72
2023/04/06 08:26:37;;;;;;;1999.90;999.90;;;;;;;9.08;49.48;100644.38;5025475;28;20503;-72
2023/04/06 08:29:03;;;;;;;1999.90;999.90;;;;;;;9.05;49.36;100648.38;5027099;28;20423;-72
2023/04/06 08:31:30;;;;;;;1999.90;999.90;;;;;;;9.06;49.17;100651.88;5021443;28;20421;-72
2023/04/06 08:33:55;;;;;;;1999.90;999.90;;;;;;;9.15;48.91;100645.13;5021872;28;20398;-72
2023/04/06 08:36:22;;;;;;;1999.90;999.90;;;;;;;9.24;49.15;100651.84;5027073;28;20746;-72
2023/04/06 08:38:49;;;;;;;1999.90;999.90;;;;;;;9.29;48.55;100651.94;5020191;28;20937;-72
2023/04/06 08:41:15;;;;;;;1999.90;999.90;;;;;;;9.39;48.87;100644.09;5030426;28;20745;-72
2023/04/06 08:43:46;;;;;;;1999.90;999.90;;;;;;;9.47;48.77;100641.06;5017485;28;20411;-72
2023/04/06 08:46:12;;;;;;;1999.90;999.90;;;;;;;9.57;47.99;100645.91;5028120;28;20404;-72
2023/04/06 08:48:39;;;;;;;1999.90;999.90;;;;;;;9.70;48.21;100642.97;5028936;28;20773;-72
2023/04/06 08:51:05;;;;;;;1999.90;999.90;;;;;;;9.83;47.45;100637.31;5037186;28;20483;-71
2023/04/06 08:53:30;;;;;;;1999.90;999.90;;;;;;;9.98;47.50;100639.56;5021871;28;20906;-72
2023/04/06 08:55:58;;;;;;;1999.90;999.90;;;;;;;10.11;46.85;100634.69;5020059;28;20398;-72
2023/04/06 08:58:25;;;;;;;1999.90;999.90;;;;;;;10.29;46.60;100636.47;5027807;28;20634;-72
2023/04/06 09:00:52;;;;;;;1999.90;999.90;;;;;;;10.49;46.19;100638.78;5028544;28;20740;-72
2023/04/06 09:03:19;;;;;;;1999.90;999.90;;;;;;;10.74;45.73;100631.97;5030245;28;20407;-72
2023/04/06 09:05:46;;;;;;;1999.90;999.90;;;;;;;11.02;44.84;100631.16;5026332;28;20411;-71
2023/04/06 09:08:11;;;;;;;1999.90;999.90;;;;;;;11.40;44.08;100638.59;5034100;28;20412;-71
2023/04/06 09:10:40;;;;;;;1999.90;999.90;;;;;;;11.93;43.60;100644.38;5014757;28;20419;-72
2023/04/06 09:13:07;;;;;;;1594.43;999.90;;;;;;;12.20;42.96;100635.50;5028881;28;20406;-72
2023/04/06 09:15:33;;;;;;;1100.57;992.47;;;;;;;12.45;42.08;100639.38;5026105;28;20447;-72
2023/04/06 09:17:58;;;;;;;270.00;254.07;;;;;;;12.92;41.21;100636.94;5021903;28;20976;-72
2023/04/06 09:20:30;;;;;;;37.47;35.00;;;;;;;13.43;40.25;100640.19;5028781;28;20464;-72
2023/04/06 09:22:55;;;;;;;7.68;5.90;;;;;;;13.47;39.48;100635.84;5033699;28;20414;-73
2023/04/06 09:25:23;;;;;;;7.93;5.43;;;;;;;13.41;39.25;100642.34;5019708;28;20416;-72
2023/04/06 09:27:57;;;;;;;6.88;5.15;;;;;;;13.46;39.38;100637.78;5016605;28;20452;-72
2023/04/06 09:30:24;;;;;;;6.75;4.95;;;;;;;13.69;39.14;100638.50;5038231;28;20403;-72
2023/04/06 09:32:51;;;;;;;6.13;5.53;;;;;;;13.83;39.44;100628.81;5041613;28;20413;-72
2023/04/06 09:35:19;;;;;;;6.15;5.28;;;;;;;14.13;39.83;100630.91;5032141;28;20411;-73
2023/04/06 09:37:46;;;;;;;6.60;5.78;;;;;;;14.76;37.91;100627.09;5043609;28;20872;-73
2023/04/06 09:40:13;;;;;;;8.80;5.25;;;;;;;15.63;36.48;100627.00;5054872;28;20531;-73
2023/04/06 09:42:41;;;;;;;7.57;5.82;;;;;;;16.44;34.80;100621.31;5032460;28;20405;-73
2023/04/06 09:45:07;;;;;;;7.38;5.72;;;;;;;16.57;34.72;100627.06;5034967;28;20765;-72
2023/04/06 09:47:33;;;;;;;6.47;5.75;;;;;;;16.58;34.52;100627.88;5029497;28;20406;-73
2023/04/06 09:49:59;;;;;;;9.43;5.95;;;;;;;16.95;34.09;100617.28;5035728;28;20489;-73
2023/04/06 09:52:41;;;;;;;7.47;5.93;;;;;;;17.12;33.50;100620.44;5051478;28;20444;-72
2023/04/06 09:55:08;;;;;;;8.55;5.65;;;;;;;16.97;33.57;100623.28;5022492;28;20415;-73
2023/04/06 09:57:52;;;;;;;7.80;6.03;;;;;;;17.51;32.26;100625.94;5032827;28;20549;-72
2023/04/06 10:00:26;;;;;;;7.53;6.10;;;;;;;17.95;32.27;100623.06;5028772;28;20465;-73
2023/04/06 10:02:59;;;;;;;8.23;6.28;;;;;;;18.87;31.19;100618.16;5053593;28;20402;-72
2023/04/06 10:05:42;;;;;;;50.58;9.27;;;;;;;19.77;30.39;100623.38;5044329;28;20409;-73
2023/04/06 10:08:09;;;;;;;9.82;5.60;;;;;;;20.59;29.70;100627.03;5018282;28;20428;-73
2023/04/06 10:10:35;;;;;;;6.85;5.15;;;;;;;21.09;27.91;100629.81;5022075;28;20818;-73
2023/04/06 10:13:00;;;;;;;8.30;5.63;;;;;;;21.71;27.12;100628.88;5021185;28;20400;-73
2023/04/06 10:15:28;;;;;;;8.80;5.27;;;;;;;22.45;26.07;100623.59;5032431;28;20394;-72
2023/04/06 10:17:53;;;;;;;9.40;5.20;;;;;;;23.08;25.33;100622.28;5013505;28;20432;-73
2023/04/06 10:20:38;;;;;;;5.20;4.70;;;;;;;23.60;24.77;100626.69;5014833;28;20439;-73
2023/04/06 10:23:16;;;;;;;11.52;7.20;;;;;;;24.06;23.49;100619.59;5030469;28;20849;-73
2023/04/06 10:26:02;;;;;;;7.88;5.03;;;;;;;24.83;23.03;100621.22;5018514;28;20417;-73
2023/04/06 10:28:33;;;;;;;7.80;4.82;;;;;;;25.37;21.82;100627.66;5029835;28;20399;-74
2023/04/06 10:30:59;;;;;;;6.93;5.68;;;;;;;25.54;20.96;100627.53;5030402;28;20454;-73
2023/04/06 10:33:25;;;;;;;8.20;6.28;;;;;;;24.92;21.74;100619.22;5017745;28;20406;-72
2023/04/06 10:35:51;;;;;;;6.47;5.38;;;;;;;24.62;21.51;100615.63;5045574;28;20743;-73
2023/04/06 10:38:21;;;;;;;5.27;4.77;;;;;;;25.11;21.49;100620.38;5026565;28;20432;-73
2023/04/06 10:40:47;;;;;;;6.07;4.83;;;;;;;25.80;20.32;100612.25;5028776;28;20844;-73
2023/04/06 10:43:20;;;;;;;5.67;4.83;;;;;;;25.88;19.85;100612.50;5032457;28;20413;-72
2023/04/06 10:45:55;;;;;;;5.10;4.43;;;;;;;26.63;18.82;100609.13;5022694;28;20420;-73
2023/04/06 10:48:21;;;;;;;5.28;4.78;;;;;;;26.35;18.90;100605.41;5028380;28;20475;-72
2023/04/06 10:50:53;;;;;;;5.80;4.85;;;;;;;26.52;18.51;100612.72;5017507;28;20540;-73
2023/04/06 10:53:27;;;;;;;4.85;4.35;;;;;;;26.71;18.56;100601.81;5026675;28;20435;-72
2023/04/06 10:55:55;;;;;;;7.87;4.80;;;;;;;26.55;18.49;100601.72;5024409;28;20395;-73
2023/04/06 10:58:24;;;;;;;7.03;5.07;;;;;;;26.24;18.03;100598.72;5016392;28;20460;-73
2023/04/06 11:00:50;;;;;;;6.18;5.07;;;;;;;26.11;18.94;100595.09;5027014;28;20484;-73
2023/04/06 11:03:16;;;;;;;5.50;5.00;;;;;;;26.67;17.72;100593.38;5013628;28;20484;-73
2023/04/06 11:05:45;;;;;;;5.10;4.53;;;;;;;27.23;17.65;100583.16;5025473;28;20395;-73